createdAt,value
2017-06-21T00:02:07.431Z,4.90
2017-06-21T00:04:35.790Z,4.47
2017-06-21T00:07:04.886Z,5.73
2017-06-21T00:09:34.083Z,5.07
2017-06-21T00:12:03.185Z,6.60
2017-06-21T00:14:31.664Z,6.20
2017-06-21T00:17:00.039Z,5.93
2017-06-21T00:19:28.417Z,6.33
2017-06-21T00:21:56.768Z,5.30
2017-06-21T00:24:25.087Z,5.00
2017-06-21T00:26:54.112Z,4.73
2017-06-21T00:29:22.434Z,4.20
2017-06-21T00:31:51.498Z,6.47
2017-06-21T00:34:19.827Z,5.60
2017-06-21T00:36:48.182Z,8.00
2017-06-21T00:39:17.388Z,4.43
2017-06-21T00:41:46.485Z,5.40
2017-06-21T00:44:14.782Z,9.47
2017-06-21T00:46:43.139Z,10.13
2017-06-21T00:49:12.635Z,5.40
2017-06-21T00:51:41.738Z,7.70
2017-06-21T00:54:10.116Z,6.03
2017-06-21T00:56:38.399Z,5.00
2017-06-21T00:59:06.711Z,7.00
2017-06-21T01:01:35.130Z,5.20
2017-06-21T01:04:04.198Z,9.47
2017-06-21T01:06:32.715Z,4.70
2017-06-21T01:09:01.818Z,4.77
2017-06-21T01:11:30.899Z,3.67
2017-06-21T01:13:59.278Z,4.10
2017-06-21T01:16:27.664Z,4.20
2017-06-21T01:18:56.959Z,5.50
2017-06-21T01:21:26.023Z,4.87
2017-06-21T01:23:54.338Z,4.23
2017-06-21T01:26:22.665Z,5.17
2017-06-21T01:28:50.992Z,4.43
2017-06-21T01:31:20.171Z,4.20
2017-06-21T01:33:48.614Z,5.50
2017-06-21T01:36:16.922Z,5.10
2017-06-21T01:38:45.306Z,4.27
2017-06-21T01:41:13.606Z,4.70
2017-06-21T01:43:42.680Z,4.57
2017-06-21T01:46:11.006Z,4.43
2017-06-21T01:48:39.439Z,4.00
2017-06-21T01:51:07.718Z,4.83
2017-06-21T01:53:36.783Z,4.47
2017-06-21T01:56:05.114Z,5.43
2017-06-21T01:58:33.415Z,4.70
2017-06-21T02:01:01.951Z,4.20
2017-06-21T02:03:31.107Z,4.53
2017-06-21T02:05:59.532Z,5.20
2017-06-21T02:08:28.603Z,4.60
2017-06-21T02:10:57.723Z,6.57
2017-06-21T02:13:26.916Z,5.60
2017-06-21T02:15:55.986Z,3.43
2017-06-21T02:18:24.488Z,5.00
2017-06-21T02:20:53.562Z,5.77
2017-06-21T02:23:22.680Z,5.10
2017-06-21T02:25:51.880Z,5.47
2017-06-21T02:28:20.963Z,4.63
2017-06-21T02:30:49.268Z,5.00
2017-06-21T02:33:17.690Z,5.50
2017-06-21T02:35:46.003Z,5.30
2017-06-21T02:38:15.099Z,4.10
2017-06-21T02:40:44.397Z,5.10
2017-06-21T02:43:13.507Z,5.10
2017-06-21T02:45:41.867Z,4.80
2017-06-21T02:48:10.294Z,6.17
2017-06-21T02:50:38.630Z,4.60
2017-06-21T02:53:06.960Z,4.53
2017-06-21T02:55:35.275Z,5.30
2017-06-21T02:58:05.195Z,4.60
2017-06-21T03:00:34.299Z,4.63
2017-06-21T03:03:02.726Z,5.60
2017-06-21T03:05:31.143Z,6.70
2017-06-21T03:07:59.506Z,5.93
2017-06-21T03:10:27.856Z,5.20
2017-06-21T03:12:56.162Z,5.87
2017-06-21T03:15:32.194Z,5.13
2017-06-21T03:18:00.507Z,5.40
2017-06-21T03:20:28.795Z,4.90
2017-06-21T03:22:57.886Z,4.80
2017-06-21T03:25:26.942Z,3.90
2017-06-21T03:27:56.045Z,5.10
2017-06-21T03:30:24.451Z,5.87
2017-06-21T03:32:52.932Z,4.47
2017-06-21T03:35:22.024Z,6.17
2017-06-21T03:37:51.116Z,4.60
2017-06-21T03:40:20.186Z,5.40
2017-06-21T03:42:48.846Z,4.70
2017-06-21T03:45:17.176Z,4.73
2017-06-21T03:47:45.637Z,5.73
2017-06-21T03:50:13.971Z,5.97
2017-06-21T03:52:42.899Z,5.13
2017-06-21T03:55:11.219Z,5.00
2017-06-21T03:57:39.514Z,4.43
2017-06-21T04:00:07.847Z,5.70
2017-06-21T04:02:36.394Z,5.47
2017-06-21T04:05:04.971Z,5.50
2017-06-21T04:07:33.438Z,7.13
2017-06-21T04:10:01.767Z,5.10
2017-06-21T04:12:30.864Z,7.10
2017-06-21T04:14:59.923Z,5.40
2017-06-21T04:17:28.438Z,5.60
2017-06-21T04:19:57.536Z,5.63
2017-06-21T04:22:25.962Z,4.90
2017-06-21T04:24:54.291Z,5.00
2017-06-21T04:27:23.337Z,5.27
2017-06-21T04:29:51.758Z,5.63
2017-06-21T04:32:20.038Z,4.80
2017-06-21T04:34:49.327Z,5.50
2017-06-21T04:37:19.114Z,4.77
2017-06-21T04:39:47.427Z,5.50
2017-06-21T04:42:16.694Z,8.50
2017-06-21T04:44:45.110Z,6.00
2017-06-21T04:47:14.172Z,7.37
2017-06-21T04:49:42.491Z,7.37
2017-06-21T04:52:11.591Z,7.27
2017-06-21T04:54:40.042Z,5.87
2017-06-21T04:57:09.119Z,6.10
2017-06-21T04:59:37.400Z,6.03
2017-06-21T05:02:06.505Z,6.20
2017-06-21T05:04:35.616Z,5.70
2017-06-21T05:07:04.093Z,8.23
2017-06-21T05:09:33.184Z,6.87
2017-06-21T05:12:02.542Z,5.30
2017-06-21T05:14:30.852Z,8.47
2017-06-21T05:16:59.231Z,7.00
2017-06-21T05:19:27.557Z,7.30
2017-06-21T05:21:55.850Z,7.33
2017-06-21T05:24:24.277Z,7.87
2017-06-21T05:26:53.467Z,5.87
2017-06-21T05:29:22.797Z,6.37
2017-06-21T05:31:51.094Z,7.27
2017-06-21T05:34:19.389Z,6.80
2017-06-21T05:36:47.979Z,6.10
2017-06-21T05:39:17.238Z,5.70
2017-06-21T05:41:46.300Z,6.10
2017-06-21T05:44:15.571Z,5.57
2017-06-21T05:46:43.970Z,6.23
2017-06-21T05:49:13.042Z,4.80
2017-06-21T05:51:41.547Z,5.43
2017-06-21T05:54:10.678Z,6.13
2017-06-21T05:56:39.011Z,6.73
2017-06-21T05:59:07.318Z,4.60
2017-06-21T06:01:35.658Z,5.57
2017-06-21T06:04:04.058Z,4.67
2017-06-21T06:06:33.166Z,5.60
2017-06-21T06:09:01.534Z,5.30
2017-06-21T06:11:30.030Z,5.03
2017-06-21T06:13:58.626Z,5.23
2017-06-21T06:16:27.077Z,5.20
2017-06-21T06:18:56.162Z,5.40
2017-06-21T06:21:24.752Z,5.57
2017-06-21T06:23:53.084Z,4.63
2017-06-21T06:26:21.413Z,4.87
2017-06-21T06:28:49.780Z,6.37
2017-06-21T06:31:19.087Z,5.00
2017-06-21T06:33:47.568Z,4.93
2017-06-21T06:36:16.019Z,5.27
2017-06-21T06:38:44.423Z,6.40
2017-06-21T06:41:12.900Z,4.77
2017-06-21T06:43:41.266Z,5.90
2017-06-21T06:46:09.567Z,7.50
2017-06-21T06:48:38.649Z,7.20
2017-06-21T06:51:07.722Z,5.80
2017-06-21T06:53:37.026Z,7.50
2017-06-21T06:56:06.111Z,6.90
2017-06-21T06:58:34.407Z,5.47
2017-06-21T07:01:03.614Z,6.50
2017-06-21T07:03:31.955Z,6.40
2017-06-21T07:06:00.319Z,6.13
2017-06-21T07:08:28.638Z,6.33
2017-06-21T07:10:57.131Z,6.17
2017-06-21T07:13:25.442Z,5.97
2017-06-21T07:15:53.783Z,4.80
2017-06-21T07:18:22.871Z,5.00
2017-06-21T07:20:52.678Z,6.20
2017-06-21T07:23:21.000Z,6.00
2017-06-21T07:25:50.056Z,5.70
2017-06-21T07:28:19.151Z,6.30
2017-06-21T07:30:47.409Z,4.93
2017-06-21T07:33:15.751Z,5.50
2017-06-21T07:35:44.176Z,5.63
2017-06-21T07:38:13.266Z,5.50
2017-06-21T07:40:42.388Z,6.63
2017-06-21T07:43:10.946Z,5.90
2017-06-21T07:45:39.327Z,4.80
2017-06-21T07:48:07.621Z,6.57
2017-06-21T07:50:35.983Z,5.60
2017-06-21T07:53:05.074Z,6.33
2017-06-21T07:55:34.274Z,5.30
2017-06-21T07:58:03.398Z,5.80
2017-06-21T08:00:31.842Z,6.23
2017-06-21T08:03:01.153Z,7.17
2017-06-21T08:05:29.473Z,5.33
2017-06-21T08:07:57.818Z,5.73
2017-06-21T08:10:26.906Z,5.83
2017-06-21T08:12:55.279Z,3.97
2017-06-21T08:15:23.731Z,4.77
2017-06-21T08:17:52.955Z,5.43
2017-06-21T08:20:22.013Z,4.67
2017-06-21T08:22:50.311Z,6.30
2017-06-21T08:25:19.402Z,6.77
2017-06-21T08:27:47.804Z,5.57
2017-06-21T08:30:17.398Z,4.73
2017-06-21T08:32:45.895Z,7.20
2017-06-21T08:35:14.983Z,5.33
2017-06-21T08:37:44.175Z,6.70
2017-06-21T08:40:12.608Z,7.00
2017-06-21T08:42:40.930Z,6.43
2017-06-21T08:45:09.374Z,6.00
2017-06-21T08:47:38.090Z,4.00
2017-06-21T08:50:07.201Z,4.57
2017-06-21T08:52:35.579Z,5.53
2017-06-21T08:55:04.049Z,4.67
2017-06-21T08:57:32.436Z,5.00
2017-06-21T09:00:01.738Z,4.90
2017-06-21T09:02:30.826Z,4.80
2017-06-21T09:04:59.211Z,4.60
2017-06-21T09:07:28.499Z,5.33
2017-06-21T09:09:57.570Z,3.90
2017-06-21T09:12:25.981Z,4.80
2017-06-21T09:14:55.034Z,5.93
2017-06-21T09:17:23.455Z,7.27
2017-06-21T09:19:51.838Z,6.67
2017-06-21T09:22:20.352Z,5.80
2017-06-21T09:24:48.795Z,5.30
2017-06-21T09:27:17.162Z,4.70
2017-06-21T09:29:45.507Z,5.27
2017-06-21T09:32:13.887Z,6.00
2017-06-21T09:34:42.289Z,10.10
2017-06-21T09:37:11.492Z,4.30
2017-06-21T09:39:39.830Z,8.27
2017-06-21T09:42:09.027Z,9.50
2017-06-21T09:44:37.748Z,8.80
2017-06-21T09:47:06.130Z,8.73
2017-06-21T09:49:35.284Z,7.30
2017-06-21T09:52:03.644Z,9.13
2017-06-21T09:54:32.143Z,5.57
2017-06-21T09:57:00.686Z,5.77
2017-06-21T09:59:29.159Z,5.80
2017-06-21T10:01:58.245Z,7.47
2017-06-21T10:04:27.342Z,6.50
2017-06-21T10:06:57.286Z,5.37
2017-06-21T10:09:25.818Z,11.73
2017-06-21T10:11:54.931Z,8.37
2017-06-21T10:14:23.399Z,8.20
2017-06-21T10:16:52.476Z,10.47
2017-06-21T10:19:20.790Z,8.63
2017-06-21T10:21:49.103Z,5.43
2017-06-21T10:24:17.647Z,7.10
2017-06-21T10:26:46.708Z,7.47
2017-06-21T10:29:15.020Z,8.30
2017-06-21T10:31:43.492Z,6.50
2017-06-21T10:34:11.877Z,6.77
2017-06-21T10:36:40.939Z,6.73
2017-06-21T10:39:09.486Z,5.57
2017-06-21T10:41:40.605Z,5.93
2017-06-21T10:44:08.932Z,7.07
2017-06-21T10:46:37.445Z,5.33
2017-06-21T10:49:06.011Z,6.90
2017-06-21T10:51:34.402Z,5.93
2017-06-21T10:54:03.494Z,6.07
2017-06-21T10:56:31.873Z,6.57
2017-06-21T10:59:01.371Z,4.97
2017-06-21T11:01:30.444Z,5.80
2017-06-21T11:03:58.761Z,6.97
2017-06-21T11:06:27.902Z,4.37
2017-06-21T11:08:56.214Z,5.50
2017-06-21T11:11:25.399Z,6.27
2017-06-21T11:13:53.813Z,5.63
2017-06-21T11:16:22.116Z,7.83
2017-06-21T11:18:50.453Z,6.30
2017-06-21T11:21:19.644Z,7.90
2017-06-21T11:23:47.949Z,7.93
2017-06-21T11:26:16.260Z,7.20
2017-06-21T11:28:44.786Z,8.40
2017-06-21T11:31:13.093Z,7.10
2017-06-21T11:33:41.959Z,6.93
2017-06-21T11:36:11.042Z,9.70
2017-06-21T11:38:40.150Z,8.57
2017-06-21T11:41:08.535Z,8.67
2017-06-21T11:43:36.998Z,7.53
2017-06-21T11:46:06.193Z,7.13
2017-06-21T11:48:35.609Z,8.80
2017-06-21T11:51:03.931Z,8.73
2017-06-21T11:53:32.251Z,8.20
2017-06-21T11:56:01.319Z,6.77
2017-06-21T11:58:29.614Z,5.17
2017-06-21T12:00:58.000Z,6.10
2017-06-21T12:03:27.064Z,5.20
2017-06-21T12:05:55.477Z,4.33
2017-06-21T12:08:24.539Z,6.30
2017-06-21T12:10:53.875Z,6.07
2017-06-21T12:13:22.930Z,5.37
2017-06-21T12:15:51.330Z,5.47
2017-06-21T12:18:20.431Z,5.83
2017-06-21T12:20:48.815Z,4.07
2017-06-21T12:23:18.278Z,4.30
2017-06-21T12:25:46.578Z,4.53
2017-06-21T12:28:16.486Z,5.53
2017-06-21T12:30:45.608Z,4.97
2017-06-21T12:33:14.853Z,4.37
2017-06-21T12:35:43.146Z,4.23
2017-06-21T12:38:11.650Z,5.47
2017-06-21T12:40:40.965Z,5.20
2017-06-21T12:43:10.042Z,5.13
2017-06-21T12:45:38.332Z,5.17
2017-06-21T12:48:06.666Z,5.50
2017-06-21T12:50:34.950Z,6.47
2017-06-21T12:53:03.278Z,5.50
2017-06-21T12:55:31.574Z,6.20
2017-06-21T12:57:59.905Z,6.50
2017-06-21T13:00:28.963Z,7.60
2017-06-21T13:02:57.479Z,6.67
2017-06-21T13:05:26.559Z,7.27
2017-06-21T13:07:55.995Z,8.87
2017-06-21T13:10:25.289Z,7.23
2017-06-21T13:12:54.362Z,6.10
2017-06-21T13:15:22.670Z,6.77
2017-06-21T13:17:51.018Z,7.37
2017-06-21T13:20:19.322Z,7.30
2017-06-21T13:22:47.632Z,7.10
2017-06-21T13:25:16.043Z,7.03
2017-06-21T13:27:45.114Z,7.27
2017-06-21T13:30:13.450Z,6.93
2017-06-21T13:32:41.917Z,4.90
2017-06-21T13:35:10.330Z,5.23
2017-06-21T13:37:38.663Z,5.07
2017-06-21T13:40:06.948Z,5.40
2017-06-21T13:42:35.431Z,7.03
2017-06-21T13:45:04.491Z,5.83
2017-06-21T13:47:33.706Z,6.70
2017-06-21T13:50:02.838Z,7.03
2017-06-21T13:52:31.358Z,6.60
2017-06-21T13:55:00.470Z,5.40
2017-06-21T13:57:29.682Z,6.40
2017-06-21T13:59:58.175Z,6.50
2017-06-21T14:02:27.233Z,7.47
2017-06-21T14:04:55.529Z,5.93
2017-06-21T14:07:24.640Z,6.87
2017-06-21T14:09:52.953Z,6.93
2017-06-21T14:12:21.275Z,8.10
2017-06-21T14:14:51.274Z,6.50
2017-06-21T14:17:19.775Z,5.80
2017-06-21T14:19:48.075Z,6.07
2017-06-21T14:22:16.374Z,4.83
2017-06-21T14:24:44.838Z,7.00
2017-06-21T14:27:13.161Z,6.00
2017-06-21T14:29:41.458Z,5.83
2017-06-21T14:32:09.944Z,7.00
2017-06-21T14:34:38.228Z,5.60
2017-06-21T14:37:07.326Z,6.20
2017-06-21T14:39:35.703Z,8.40
2017-06-21T14:42:04.114Z,6.70
2017-06-21T14:44:32.438Z,5.70
2017-06-21T14:47:00.930Z,5.43
2017-06-21T14:49:30.335Z,6.23
2017-06-21T14:51:58.722Z,4.73
2017-06-21T14:54:26.992Z,6.50
2017-06-21T14:56:56.178Z,7.27
2017-06-21T14:59:25.504Z,5.87
2017-06-21T15:01:53.830Z,7.17
2017-06-21T15:04:22.144Z,6.53
2017-06-21T15:06:51.839Z,7.20
2017-06-21T15:09:20.934Z,9.03
2017-06-21T15:11:49.275Z,9.20
2017-06-21T15:14:17.591Z,7.87
2017-06-21T15:16:46.893Z,9.90
2017-06-21T15:19:15.986Z,9.70
2017-06-21T15:21:45.054Z,12.20
2017-06-21T15:24:13.391Z,9.43
2017-06-21T15:26:41.690Z,10.33
2017-06-21T15:29:10.039Z,21.33
2017-06-21T15:31:38.388Z,12.53
2017-06-21T15:34:06.866Z,10.53
2017-06-21T15:36:35.258Z,14.90
2017-06-21T15:39:03.903Z,13.20
2017-06-21T15:41:33.033Z,14.37
2017-06-21T15:44:01.410Z,14.00
2017-06-21T15:46:30.698Z,18.77
2017-06-21T15:48:59.800Z,24.43
2017-06-21T15:51:29.005Z,26.60
2017-06-21T15:53:58.194Z,23.07
2017-06-21T15:56:26.506Z,19.90
2017-06-21T15:58:54.851Z,22.23
2017-06-21T16:01:23.191Z,22.77
2017-06-21T16:03:51.711Z,24.40
2017-06-21T16:06:20.091Z,26.10
2017-06-21T16:08:48.429Z,22.40
2017-06-21T16:11:16.740Z,22.87
2017-06-21T16:13:45.833Z,18.40
2017-06-21T16:16:14.213Z,18.80
2017-06-21T16:18:42.549Z,22.17
2017-06-21T16:21:11.271Z,21.77
2017-06-21T16:23:39.658Z,20.27
2017-06-21T16:26:07.994Z,22.90
2017-06-21T16:28:36.406Z,21.90
2017-06-21T16:31:04.786Z,28.23
2017-06-21T16:33:33.863Z,20.70
2017-06-21T16:36:02.254Z,29.37
2017-06-21T16:38:31.350Z,29.50
2017-06-21T16:41:00.447Z,31.10
2017-06-21T16:43:28.936Z,21.97
2017-06-21T16:45:58.029Z,17.97
2017-06-21T16:48:26.365Z,20.90
2017-06-21T16:50:54.687Z,23.33
2017-06-21T16:53:22.992Z,22.60
2017-06-21T16:55:51.444Z,13.73
2017-06-21T16:58:20.533Z,21.53
2017-06-21T17:00:49.116Z,19.67
2017-06-21T17:03:18.182Z,17.50
2017-06-21T17:05:46.582Z,16.50
2017-06-21T17:08:15.675Z,18.63
2017-06-21T17:10:44.134Z,15.90
2017-06-21T17:13:12.547Z,16.97
2017-06-21T17:15:40.920Z,15.70
2017-06-21T17:18:09.266Z,16.50
2017-06-21T17:20:37.561Z,13.27
2017-06-21T17:23:06.787Z,14.40
2017-06-21T17:25:35.097Z,13.47
2017-06-21T17:28:03.434Z,12.77
2017-06-21T17:30:31.767Z,16.30
2017-06-21T17:33:01.054Z,16.30
2017-06-21T17:35:29.614Z,12.23
2017-06-21T17:37:57.945Z,16.07
2017-06-21T17:40:26.442Z,14.93
2017-06-21T17:42:54.772Z,15.80
2017-06-21T17:45:23.292Z,14.20
2017-06-21T17:47:51.706Z,11.20
2017-06-21T17:50:20.151Z,10.73
2017-06-21T17:52:49.233Z,14.20
2017-06-21T17:55:17.514Z,13.20
2017-06-21T17:57:47.131Z,13.97
2017-06-21T18:00:16.224Z,15.23
2017-06-21T18:02:45.517Z,12.60
2017-06-21T18:05:14.587Z,14.80
2017-06-21T18:07:42.890Z,13.77
2017-06-21T18:10:11.374Z,13.10
2017-06-21T18:12:39.707Z,9.17
2017-06-21T18:15:08.338Z,8.00
2017-06-21T18:17:37.435Z,6.23
2017-06-21T18:20:05.812Z,6.43
2017-06-21T18:22:34.914Z,7.23
2017-06-21T18:25:03.183Z,7.83
2017-06-21T18:27:32.270Z,7.80
2017-06-21T18:30:01.340Z,7.97
2017-06-21T18:32:29.738Z,6.77
2017-06-21T18:34:58.125Z,7.50
2017-06-21T18:37:26.607Z,7.80
2017-06-21T18:39:56.150Z,5.77
2017-06-21T18:42:24.486Z,6.30
2017-06-21T18:44:52.847Z,7.40
2017-06-21T18:47:21.142Z,7.37
2017-06-21T18:49:50.152Z,9.47
2017-06-21T18:52:19.188Z,8.03
2017-06-21T18:54:48.318Z,7.27
2017-06-21T18:57:16.663Z,7.70
2017-06-21T18:59:45.577Z,5.43
2017-06-21T19:02:15.697Z,5.20
2017-06-21T19:04:44.247Z,6.33
2017-06-21T19:07:13.660Z,6.03
2017-06-21T19:09:42.373Z,6.23
2017-06-21T19:12:10.890Z,4.30
2017-06-21T19:14:40.106Z,6.90
2017-06-21T19:17:08.572Z,11.27
2017-06-21T19:19:37.020Z,12.57
2017-06-21T19:22:06.142Z,12.37
2017-06-21T19:24:34.614Z,7.87
2017-06-21T19:27:03.084Z,7.70
2017-06-21T19:29:31.564Z,6.57
2017-06-21T19:31:59.881Z,4.60
2017-06-21T19:34:28.327Z,10.33
2017-06-21T19:36:56.647Z,6.80
2017-06-21T19:39:25.101Z,10.27
2017-06-21T19:41:53.419Z,8.00
2017-06-21T19:44:21.833Z,10.47
2017-06-21T19:46:50.320Z,6.33
2017-06-21T19:49:19.385Z,6.70
2017-06-21T19:51:48.595Z,6.63
2017-06-21T19:54:17.667Z,6.17
2017-06-21T19:56:47.016Z,5.00
2017-06-21T19:59:15.299Z,5.53
2017-06-21T20:01:43.691Z,5.87
2017-06-21T20:04:12.023Z,6.80
2017-06-21T20:06:40.359Z,5.67
2017-06-21T20:09:08.787Z,7.50
2017-06-21T20:11:37.090Z,7.23
2017-06-21T20:14:05.609Z,10.63
2017-06-21T20:16:34.107Z,6.20
2017-06-21T20:19:03.211Z,6.17
2017-06-21T20:21:31.700Z,6.50
2017-06-21T20:24:00.019Z,8.03
2017-06-21T20:26:28.351Z,9.17
2017-06-21T20:28:58.333Z,10.57
2017-06-21T20:31:26.660Z,8.73
2017-06-21T20:33:55.731Z,8.57
2017-06-21T20:36:24.035Z,7.80
2017-06-21T20:38:53.141Z,6.60
2017-06-21T20:41:21.467Z,8.13
2017-06-21T20:43:49.776Z,8.70
2017-06-21T20:46:18.846Z,8.30
2017-06-21T20:48:47.766Z,6.90
2017-06-21T20:51:16.160Z,6.70
2017-06-21T20:53:44.475Z,6.63
2017-06-21T20:56:12.817Z,6.93
2017-06-21T20:58:41.142Z,5.37
2017-06-21T21:01:10.700Z,7.43
2017-06-21T21:03:39.160Z,5.03
2017-06-21T21:06:07.527Z,5.93
2017-06-21T21:08:35.847Z,6.40
2017-06-21T21:11:05.178Z,9.00
2017-06-21T21:13:33.479Z,6.83
2017-06-21T21:16:01.795Z,6.07
2017-06-21T21:18:30.211Z,6.70
2017-06-21T21:20:58.687Z,9.03
2017-06-21T21:23:28.614Z,6.73
2017-06-21T21:25:56.891Z,7.10
2017-06-21T21:28:25.991Z,8.33
2017-06-21T21:30:55.070Z,6.67
2017-06-21T21:33:23.559Z,7.20
2017-06-21T21:35:52.659Z,6.40
2017-06-21T21:38:20.996Z,6.20
2017-06-21T21:40:49.325Z,8.50
2017-06-21T21:43:17.639Z,7.47
2017-06-21T21:45:46.279Z,7.50
2017-06-21T21:48:17.522Z,4.70
2017-06-21T21:50:45.968Z,5.90
2017-06-21T21:53:14.283Z,6.43
2017-06-21T21:55:42.619Z,4.90
2017-06-21T21:58:11.098Z,6.23
2017-06-21T22:00:39.517Z,3.60
2017-06-21T22:03:08.608Z,4.17
2017-06-21T22:05:37.809Z,5.10
2017-06-21T22:08:06.176Z,4.40
2017-06-21T22:10:34.661Z,4.90
2017-06-21T22:13:03.766Z,5.60
2017-06-21T22:15:32.823Z,5.30
2017-06-21T22:18:01.137Z,6.30
2017-06-21T22:20:29.529Z,5.10
2017-06-21T22:22:57.997Z,4.80
2017-06-21T22:25:27.182Z,5.20
2017-06-21T22:27:56.592Z,5.70
2017-06-21T22:30:25.656Z,5.40
2017-06-21T22:32:54.776Z,4.63
2017-06-21T22:35:23.077Z,4.70
2017-06-21T22:37:51.366Z,4.83
2017-06-21T22:40:19.810Z,5.40
2017-06-21T22:42:48.136Z,4.57
2017-06-21T22:45:16.683Z,5.37
2017-06-21T22:47:44.995Z,4.00
2017-06-21T22:50:13.299Z,5.60
2017-06-21T22:52:41.639Z,4.13
2017-06-21T22:55:09.924Z,4.80
2017-06-21T22:57:38.287Z,4.20
2017-06-21T23:00:06.633Z,5.20
2017-06-21T23:02:35.711Z,5.03
2017-06-21T23:05:04.091Z,4.87
2017-06-21T23:07:33.210Z,5.40
2017-06-21T23:10:01.536Z,4.03
2017-06-21T23:12:29.866Z,6.10
2017-06-21T23:14:58.919Z,12.30
2017-06-21T23:17:27.534Z,8.80
2017-06-21T23:19:56.598Z,9.30
2017-06-21T23:22:24.998Z,9.13
2017-06-21T23:24:53.303Z,5.33
2017-06-21T23:27:21.619Z,6.30
2017-06-21T23:29:49.947Z,6.90
2017-06-21T23:32:18.254Z,11.57
2017-06-21T23:34:46.590Z,10.83
2017-06-21T23:37:14.936Z,11.00
2017-06-21T23:39:43.449Z,8.37
2017-06-21T23:42:11.754Z,14.27
2017-06-21T23:44:40.302Z,5.50
2017-06-21T23:47:08.788Z,13.40
2017-06-21T23:49:37.266Z,6.60
2017-06-21T23:52:06.459Z,7.10
2017-06-21T23:54:34.773Z,9.40
2017-06-21T23:57:03.204Z,10.80
2017-06-21T23:59:32.278Z,8.90
